createdAt,value
2023-03-18T00:01:13.758Z,45.02
2023-03-18T00:03:40.994Z,45.49
2023-03-18T00:06:17.047Z,45.85
2023-03-18T00:08:46.512Z,46.29
2023-03-18T00:11:15.993Z,46.98
2023-03-18T00:13:43.911Z,46.04
2023-03-18T00:16:12.830Z,46.84
2023-03-18T00:18:40.760Z,46.34
2023-03-18T00:21:10.026Z,46.82
2023-03-18T00:23:38.887Z,47.13
2023-03-18T00:26:09.203Z,46.90
2023-03-18T00:28:38.444Z,46.53
2023-03-18T00:31:11.353Z,46.11
2023-03-18T00:33:50.640Z,46.12
2023-03-18T00:36:19.412Z,47.14
2023-03-18T00:38:51.331Z,46.73
2023-03-18T00:41:19.411Z,46.83
2023-03-18T00:43:54.753Z,47.73
2023-03-18T00:46:28.218Z,47.43
2023-03-18T00:48:57.773Z,47.13
2023-03-18T00:51:26.866Z,47.09
2023-03-18T00:54:06.863Z,47.50
2023-03-18T00:56:37.860Z,47.60
2023-03-18T00:59:06.727Z,48.09
2023-03-18T01:01:34.683Z,47.61
2023-03-18T01:04:02.954Z,47.88
2023-03-18T01:06:32.783Z,47.86
2023-03-18T01:09:02.898Z,47.88
2023-03-18T01:11:37.507Z,48.08
2023-03-18T01:14:05.043Z,47.91
2023-03-18T01:16:32.462Z,48.11
2023-03-18T01:19:07.086Z,47.57
2023-03-18T01:21:34.718Z,48.35
2023-03-18T01:24:08.455Z,48.59
2023-03-18T01:26:37.210Z,49.26
2023-03-18T01:29:04.975Z,48.84
2023-03-18T01:31:32.618Z,48.23
2023-03-18T01:34:00.105Z,47.90
2023-03-18T01:36:28.601Z,48.78
2023-03-18T01:38:58.210Z,47.75
2023-03-18T01:41:26.358Z,48.40
2023-03-18T01:43:55.878Z,48.05
2023-03-18T01:46:39.757Z,48.13
2023-03-18T01:49:20.917Z,47.37
2023-03-18T01:52:13.090Z,48.02
2023-03-18T01:54:47.817Z,48.20
2023-03-18T01:57:17.620Z,48.33
2023-03-18T01:59:46.346Z,47.49
2023-03-18T02:02:16.571Z,47.57
2023-03-18T02:04:56.829Z,47.70
2023-03-18T02:07:35.513Z,47.57
2023-03-18T02:10:11.302Z,47.45
2023-03-18T02:12:49.386Z,47.69
2023-03-18T02:15:19.926Z,47.08
2023-03-18T02:17:55.687Z,47.24
2023-03-18T02:20:44.910Z,47.81
2023-03-18T02:23:25.917Z,48.04
2023-03-18T02:26:13.928Z,47.77
2023-03-18T02:28:44.074Z,48.08
2023-03-18T02:31:17.049Z,48.15
2023-03-18T02:33:46.752Z,48.58
2023-03-18T02:36:25.610Z,49.31
2023-03-18T02:38:52.738Z,49.42
2023-03-18T02:41:23.922Z,49.51
2023-03-18T02:43:53.403Z,48.96
2023-03-18T02:46:35.868Z,49.52
2023-03-18T02:49:08.126Z,49.73
2023-03-18T02:51:37.325Z,49.48
2023-03-18T02:54:15.799Z,49.68
2023-03-18T02:56:43.852Z,49.78
2023-03-18T02:59:13.380Z,49.68
2023-03-18T03:01:43.432Z,49.61
2023-03-18T03:04:10.856Z,49.88
2023-03-18T03:06:38.573Z,50.21
2023-03-18T03:09:08.024Z,50.16
2023-03-18T03:11:36.620Z,50.90
2023-03-18T03:14:04.235Z,51.40
2023-03-18T03:16:32.056Z,50.20
2023-03-18T03:18:59.390Z,50.49
2023-03-18T03:21:28.120Z,50.23
2023-03-18T03:23:55.561Z,50.18
2023-03-18T03:26:23.071Z,50.07
2023-03-18T03:28:50.425Z,50.73
2023-03-18T03:31:18.397Z,51.15
2023-03-18T03:33:45.903Z,51.30
2023-03-18T03:36:17.276Z,50.77
2023-03-18T03:38:46.267Z,51.09
2023-03-18T03:41:14.050Z,50.89
2023-03-18T03:43:43.554Z,50.99
2023-03-18T03:46:11.619Z,51.05
2023-03-18T03:48:39.894Z,51.19
2023-03-18T03:51:12.960Z,51.17
2023-03-18T03:53:42.513Z,51.62
2023-03-18T03:56:11.664Z,51.74
2023-03-18T03:58:38.782Z,51.98
2023-03-18T04:01:08.880Z,51.88
2023-03-18T04:03:36.340Z,51.98
2023-03-18T04:06:04.816Z,52.36
2023-03-18T04:08:31.897Z,52.43
2023-03-18T04:10:59.649Z,52.77
2023-03-18T04:13:26.676Z,52.28
2023-03-18T04:15:55.083Z,51.96
2023-03-18T04:18:22.631Z,52.44
2023-03-18T04:20:50.116Z,51.81
2023-03-18T04:23:17.699Z,52.42
2023-03-18T04:25:45.308Z,52.26
2023-03-18T04:28:12.415Z,52.35
2023-03-18T04:30:40.248Z,51.86
2023-03-18T04:33:07.456Z,52.31
2023-03-18T04:35:36.793Z,52.77
2023-03-18T04:38:04.868Z,52.01
2023-03-18T04:40:33.175Z,52.29
2023-03-18T04:43:00.978Z,52.54
2023-03-18T04:45:30.650Z,52.59
2023-03-18T04:47:58.812Z,52.90
2023-03-18T04:50:26.338Z,52.87
2023-03-18T04:52:53.741Z,53.13
2023-03-18T04:55:21.620Z,53.36
2023-03-18T04:57:50.773Z,54.02
2023-03-18T05:00:23.949Z,53.18
2023-03-18T05:02:51.549Z,53.08
2023-03-18T05:05:18.875Z,52.56
2023-03-18T05:07:46.047Z,51.98
2023-03-18T05:10:13.861Z,51.71
2023-03-18T05:12:48.978Z,51.44
2023-03-18T05:15:18.572Z,51.96
2023-03-18T05:17:46.110Z,51.52
2023-03-18T05:20:14.949Z,51.31
2023-03-18T05:22:42.691Z,51.08
2023-03-18T05:25:11.787Z,50.69
2023-03-18T05:27:39.341Z,50.81
2023-03-18T05:30:09.518Z,50.37
2023-03-18T05:32:36.991Z,50.77
2023-03-18T05:35:06.136Z,50.26
2023-03-18T05:37:33.739Z,50.26
2023-03-18T05:40:02.200Z,49.86
2023-03-18T05:42:31.259Z,50.30
2023-03-18T05:44:58.648Z,50.04
2023-03-18T05:47:26.208Z,48.44
2023-03-18T05:49:54.782Z,48.59
2023-03-18T05:52:23.993Z,48.71
2023-03-18T05:54:51.518Z,48.41
2023-03-18T05:57:19.340Z,47.77
2023-03-18T05:59:46.928Z,47.95
2023-03-18T06:02:16.544Z,48.43
2023-03-18T06:04:46.382Z,48.90
2023-03-18T06:07:13.760Z,47.63
2023-03-18T06:09:41.986Z,47.23
2023-03-18T06:12:09.382Z,47.49
2023-03-18T06:14:37.568Z,46.99
2023-03-18T06:17:04.970Z,49.21
2023-03-18T06:19:34.565Z,47.25
2023-03-18T06:22:01.863Z,47.62
2023-03-18T06:24:29.129Z,47.31
2023-03-18T06:26:57.644Z,47.48
2023-03-18T06:29:26.859Z,47.11
2023-03-18T06:31:55.198Z,46.90
2023-03-18T06:34:22.697Z,47.43
2023-03-18T06:36:50.239Z,47.99
2023-03-18T06:39:18.214Z,47.15
2023-03-18T06:41:46.043Z,47.17
2023-03-18T06:44:13.552Z,49.02
2023-03-18T06:46:43.709Z,47.21
2023-03-18T06:49:11.748Z,47.41
2023-03-18T06:51:39.995Z,47.30
2023-03-18T06:54:07.636Z,47.55
2023-03-18T06:56:40.372Z,47.43
2023-03-18T06:59:08.453Z,48.67
2023-03-18T07:01:37.369Z,48.28
2023-03-18T07:04:07.200Z,47.10
2023-03-18T07:06:34.293Z,47.21
2023-03-18T07:09:01.553Z,46.94
2023-03-18T07:11:28.931Z,47.22
2023-03-18T07:13:56.530Z,46.97
2023-03-18T07:16:30.922Z,46.02
2023-03-18T07:18:59.662Z,46.71
2023-03-18T07:21:33.204Z,45.75
2023-03-18T07:24:01.694Z,46.02
2023-03-18T07:26:30.348Z,45.92
2023-03-18T07:28:58.445Z,45.73
2023-03-18T07:31:25.906Z,45.56
2023-03-18T07:33:53.405Z,45.47
2023-03-18T07:36:21.032Z,45.11
2023-03-18T07:38:48.411Z,45.08
2023-03-18T07:41:15.974Z,44.98
2023-03-18T07:43:43.903Z,46.06
2023-03-18T07:46:14.371Z,45.93
2023-03-18T07:48:42.726Z,44.41
2023-03-18T07:51:10.241Z,45.04
2023-03-18T07:53:38.525Z,45.58
2023-03-18T07:56:06.455Z,44.22
2023-03-18T07:58:34.430Z,44.42
2023-03-18T08:01:02.824Z,44.54
2023-03-18T08:03:30.102Z,44.52
2023-03-18T08:05:57.714Z,44.10
2023-03-18T08:08:25.156Z,43.63
2023-03-18T08:10:57.717Z,44.42
2023-03-18T08:13:26.118Z,43.86
2023-03-18T08:15:56.494Z,44.24
2023-03-18T08:18:24.289Z,44.12
2023-03-18T08:20:53.326Z,42.73
2023-03-18T08:23:21.455Z,43.94
2023-03-18T08:25:51.230Z,43.20
2023-03-18T08:28:19.276Z,42.49
2023-03-18T08:30:47.192Z,42.65
2023-03-18T08:33:14.480Z,42.05
2023-03-18T08:35:43.060Z,41.91
2023-03-18T08:38:10.747Z,42.23
2023-03-18T08:40:41.517Z,40.51
2023-03-18T08:43:09.472Z,41.12
2023-03-18T08:45:54.175Z,40.82
2023-03-18T08:48:23.518Z,39.48
2023-03-18T08:50:50.918Z,38.15
2023-03-18T08:53:20.340Z,38.33
2023-03-18T08:55:48.835Z,38.43
2023-03-18T08:58:17.618Z,37.08
2023-03-18T09:00:45.061Z,37.46
2023-03-18T09:03:13.301Z,37.79
2023-03-18T09:05:40.660Z,37.23
2023-03-18T09:08:07.984Z,36.53
2023-03-18T09:10:36.017Z,36.76
2023-03-18T09:13:03.692Z,37.12
2023-03-18T09:15:31.976Z,36.94
2023-03-18T09:18:11.126Z,36.19
2023-03-18T09:20:41.163Z,36.98
2023-03-18T09:23:10.092Z,35.30
2023-03-18T09:25:37.644Z,36.30
2023-03-18T09:28:06.255Z,34.90
2023-03-18T09:30:34.076Z,35.82
2023-03-18T09:33:09.613Z,33.86
2023-03-18T09:35:38.103Z,33.58
2023-03-18T09:38:05.799Z,33.48
2023-03-18T09:40:40.602Z,33.30
2023-03-18T09:43:20.926Z,33.97
2023-03-18T09:46:07.057Z,33.09
2023-03-18T09:48:40.791Z,32.99
2023-03-18T09:51:13.922Z,33.59
2023-03-18T09:53:53.624Z,32.93
2023-03-18T09:56:35.168Z,32.88
2023-03-18T09:59:21.888Z,32.96
2023-03-18T10:01:55.847Z,33.20
2023-03-18T10:04:28.125Z,31.82
2023-03-18T10:07:04.348Z,32.67
2023-03-18T10:09:40.590Z,32.12
2023-03-18T10:12:21.411Z,31.62
2023-03-18T10:15:04.718Z,31.49
2023-03-18T10:17:39.177Z,31.94
2023-03-18T10:20:17.977Z,31.01
2023-03-18T10:23:01.240Z,31.37
2023-03-18T10:25:55.084Z,31.90
2023-03-18T10:28:56.678Z,32.07
2023-03-18T10:32:00.234Z,30.69
2023-03-18T10:34:54.391Z,31.74
2023-03-18T10:38:07.000Z,31.25
2023-03-18T10:40:41.554Z,31.86
2023-03-18T10:43:28.560Z,30.52
2023-03-18T10:46:07.652Z,30.94
2023-03-18T10:48:41.230Z,31.06
2023-03-18T10:51:33.948Z,30.33
2023-03-18T10:54:16.179Z,31.42
2023-03-18T10:56:43.762Z,31.15
2023-03-18T10:59:16.572Z,30.82
2023-03-18T11:01:48.527Z,30.90
2023-03-18T11:04:24.010Z,30.87
2023-03-18T11:07:03.987Z,31.26
2023-03-18T11:09:34.345Z,30.65
2023-03-18T11:12:07.158Z,31.63
2023-03-18T11:14:38.437Z,30.96
2023-03-18T11:17:19.994Z,30.75
2023-03-18T11:19:49.626Z,30.89
2023-03-18T11:22:28.360Z,32.11
2023-03-18T11:25:13.379Z,32.67
2023-03-18T11:27:46.648Z,32.99
2023-03-18T11:30:34.876Z,32.64
2023-03-18T11:33:12.671Z,32.51
2023-03-18T11:35:46.425Z,33.41
2023-03-18T11:38:22.041Z,32.73
2023-03-18T11:40:49.572Z,32.87
2023-03-18T11:43:20.946Z,33.03
2023-03-18T11:45:51.567Z,31.87
2023-03-18T11:48:39.642Z,32.29
2023-03-18T11:51:28.973Z,32.48
2023-03-18T11:54:14.515Z,31.51
2023-03-18T11:56:47.260Z,31.58
2023-03-18T11:59:25.818Z,31.73
2023-03-18T12:01:57.977Z,32.02
2023-03-18T12:04:53.974Z,30.99
2023-03-18T12:07:38.194Z,31.52
2023-03-18T12:10:24.980Z,31.71
2023-03-18T12:13:29.962Z,30.50
2023-03-18T12:16:19.107Z,30.80
2023-03-18T12:19:20.208Z,31.01
2023-03-18T12:21:53.114Z,30.24
2023-03-18T12:24:40.382Z,30.88
2023-03-18T12:27:32.791Z,30.35
2023-03-18T12:30:12.979Z,29.57
2023-03-18T12:33:18.586Z,29.53
2023-03-18T12:36:03.438Z,29.67
2023-03-18T12:38:54.945Z,29.65
2023-03-18T12:41:28.276Z,30.05
2023-03-18T12:44:15.845Z,29.61
2023-03-18T12:47:09.775Z,29.84
2023-03-18T12:49:45.470Z,30.10
2023-03-18T12:52:24.931Z,30.43
2023-03-18T12:55:07.938Z,31.05
2023-03-18T12:57:44.546Z,30.72
2023-03-18T13:00:28.324Z,30.76
2023-03-18T13:03:07.232Z,30.16
2023-03-18T13:05:59.198Z,31.28
2023-03-18T13:08:42.387Z,31.24
2023-03-18T13:11:36.861Z,31.89
2023-03-18T13:14:26.563Z,32.24
2023-03-18T13:16:56.542Z,32.52
2023-03-18T13:19:24.464Z,31.50
2023-03-18T13:22:07.836Z,31.40
2023-03-18T13:25:03.965Z,32.21
2023-03-18T13:28:11.050Z,31.77
2023-03-18T13:31:00.604Z,31.59
2023-03-18T13:33:46.256Z,31.53
2023-03-18T13:36:47.644Z,30.66
2023-03-18T13:39:19.777Z,30.87
2023-03-18T13:42:05.608Z,32.25
2023-03-18T13:44:46.318Z,31.27
2023-03-18T13:47:23.793Z,30.71
2023-03-18T13:50:05.034Z,30.89
2023-03-18T13:52:48.156Z,30.66
2023-03-18T13:55:47.695Z,30.70
2023-03-18T13:58:30.669Z,31.03
2023-03-18T14:01:21.216Z,31.21
2023-03-18T14:03:51.869Z,30.60
2023-03-18T14:06:36.055Z,30.42
2023-03-18T14:09:33.232Z,31.18
2023-03-18T14:12:39.233Z,30.45
2023-03-18T14:15:09.626Z,30.87
2023-03-18T14:17:58.785Z,31.42
2023-03-18T14:20:45.253Z,32.13
2023-03-18T14:23:37.574Z,32.03
2023-03-18T14:26:22.292Z,32.26
2023-03-18T14:29:15.820Z,31.34
2023-03-18T14:31:43.532Z,32.62
2023-03-18T14:34:20.080Z,32.08
2023-03-18T14:36:53.104Z,32.19
2023-03-18T14:39:31.808Z,33.46
2023-03-18T14:42:02.938Z,32.73
2023-03-18T14:44:54.976Z,32.50
2023-03-18T14:47:40.682Z,32.04
2023-03-18T14:50:22.457Z,32.77
2023-03-18T14:53:12.782Z,32.48
2023-03-18T14:55:40.675Z,32.92
2023-03-18T14:58:18.763Z,32.64
2023-03-18T15:00:52.761Z,32.13
2023-03-18T15:03:25.157Z,31.58
2023-03-18T15:05:58.412Z,31.43
2023-03-18T15:08:44.613Z,31.37
2023-03-18T15:11:20.754Z,31.25
2023-03-18T15:13:48.234Z,31.38
2023-03-18T15:16:20.375Z,32.17
2023-03-18T15:18:54.074Z,31.08
2023-03-18T15:21:26.184Z,31.41
2023-03-18T15:23:57.824Z,31.16
2023-03-18T15:26:31.547Z,31.77
2023-03-18T15:29:00.600Z,32.29
2023-03-18T15:31:32.740Z,32.67
2023-03-18T15:34:21.189Z,32.25
2023-03-18T15:36:57.388Z,33.15
2023-03-18T15:39:41.299Z,32.62
2023-03-18T15:42:17.832Z,32.76
2023-03-18T15:44:58.790Z,31.95
2023-03-18T15:47:32.529Z,32.50
2023-03-18T15:50:01.406Z,32.58
2023-03-18T15:52:34.505Z,32.78
2023-03-18T15:55:02.182Z,33.11
2023-03-18T15:57:43.829Z,33.64
2023-03-18T16:00:13.647Z,33.99
2023-03-18T16:02:42.166Z,34.01
2023-03-18T16:05:19.662Z,34.00
2023-03-18T16:07:48.379Z,34.19
2023-03-18T16:10:20.541Z,34.84
2023-03-18T16:12:55.869Z,34.24
2023-03-18T16:15:26.318Z,35.14
2023-03-18T16:17:55.530Z,34.93
2023-03-18T16:20:26.423Z,35.94
2023-03-18T16:22:54.474Z,36.05
2023-03-18T16:25:24.422Z,36.40
2023-03-18T16:27:54.837Z,36.32
2023-03-18T16:30:31.354Z,36.54
2023-03-18T16:32:59.474Z,36.28
2023-03-18T16:35:33.092Z,37.60
2023-03-18T16:38:01.103Z,36.25
2023-03-18T16:40:32.371Z,37.07
2023-03-18T16:43:02.864Z,36.63
2023-03-18T16:45:34.487Z,37.10
2023-03-18T16:48:07.670Z,37.14
2023-03-18T16:50:38.568Z,36.91
2023-03-18T16:53:18.639Z,37.89
2023-03-18T16:55:48.630Z,38.09
2023-03-18T16:58:23.153Z,37.51
2023-03-18T17:00:51.759Z,38.06
2023-03-18T17:03:20.021Z,38.02
2023-03-18T17:05:52.437Z,38.57
2023-03-18T17:08:22.386Z,38.85
2023-03-18T17:10:53.881Z,38.62
2023-03-18T17:13:26.498Z,39.13
2023-03-18T17:15:54.268Z,39.13
2023-03-18T17:18:23.986Z,39.52
2023-03-18T17:20:57.922Z,39.77
2023-03-18T17:23:29.071Z,39.76
2023-03-18T17:26:01.166Z,39.74
2023-03-18T17:28:39.323Z,40.10
2023-03-18T17:31:08.256Z,40.06
2023-03-18T17:33:37.559Z,40.15
2023-03-18T17:36:07.140Z,40.25
2023-03-18T17:38:37.873Z,40.37
2023-03-18T17:41:13.435Z,40.48
2023-03-18T17:43:42.746Z,40.60
2023-03-18T17:46:11.742Z,40.51
2023-03-18T17:48:41.907Z,40.67
2023-03-18T17:51:21.571Z,40.50
2023-03-18T17:53:52.060Z,41.12
2023-03-18T17:56:20.876Z,40.98
2023-03-18T17:58:52.262Z,41.04
2023-03-18T18:01:29.960Z,40.95
2023-03-18T18:04:00.229Z,41.21
2023-03-18T18:06:29.943Z,41.42
2023-03-18T18:09:09.584Z,41.43
2023-03-18T18:11:44.545Z,41.50
2023-03-18T18:14:26.048Z,41.71
2023-03-18T18:16:56.948Z,42.14
2023-03-18T18:19:25.216Z,41.93
2023-03-18T18:22:03.510Z,42.62
2023-03-18T18:24:34.231Z,42.34
2023-03-18T18:27:03.672Z,42.47
2023-03-18T18:29:35.082Z,42.49
2023-03-18T18:32:03.145Z,42.71
2023-03-18T18:34:33.619Z,42.87
2023-03-18T18:37:03.724Z,43.20
2023-03-18T18:39:31.849Z,42.95
2023-03-18T18:42:00.465Z,43.09
2023-03-18T18:44:29.338Z,43.31
2023-03-18T18:46:58.169Z,43.51
2023-03-18T18:49:27.106Z,43.30
2023-03-18T18:51:57.393Z,43.70
2023-03-18T18:54:26.276Z,43.91
2023-03-18T18:56:55.785Z,43.69
2023-03-18T18:59:29.334Z,44.23
2023-03-18T19:01:57.924Z,43.58
2023-03-18T19:04:27.799Z,43.82
2023-03-18T19:06:56.557Z,44.06
2023-03-18T19:09:31.162Z,44.24
2023-03-18T19:12:00.710Z,44.17
2023-03-18T19:14:30.364Z,44.29
2023-03-18T19:17:00.757Z,43.94
2023-03-18T19:19:34.332Z,44.26
2023-03-18T19:22:04.963Z,44.39
2023-03-18T19:24:40.471Z,44.56
2023-03-18T19:27:27.586Z,44.99
2023-03-18T19:30:06.040Z,45.09
2023-03-18T19:32:35.526Z,45.19
2023-03-18T19:35:03.744Z,45.01
2023-03-18T19:37:33.309Z,45.26
2023-03-18T19:40:07.672Z,45.39
2023-03-18T19:42:36.879Z,45.50
2023-03-18T19:45:07.569Z,45.39
2023-03-18T19:47:36.973Z,45.01
2023-03-18T19:50:19.173Z,45.13
2023-03-18T19:52:48.579Z,45.07
2023-03-18T19:55:17.752Z,45.09
2023-03-18T19:57:51.611Z,45.06
2023-03-18T20:00:26.002Z,44.88
2023-03-18T20:02:54.201Z,44.84
2023-03-18T20:05:25.512Z,45.22
2023-03-18T20:07:53.841Z,45.09
2023-03-18T20:10:26.824Z,45.33
2023-03-18T20:12:54.646Z,45.13
2023-03-18T20:15:29.081Z,45.11
2023-03-18T20:18:04.626Z,45.21
2023-03-18T20:20:39.673Z,45.27
2023-03-18T20:23:13.404Z,45.42
2023-03-18T20:25:43.272Z,45.55
2023-03-18T20:28:23.833Z,45.65
2023-03-18T20:30:56.872Z,45.52
2023-03-18T20:33:25.173Z,45.65
2023-03-18T20:35:56.922Z,46.03
2023-03-18T20:38:38.340Z,45.82
2023-03-18T20:41:18.477Z,46.28
2023-03-18T20:43:50.761Z,46.05
2023-03-18T20:46:23.839Z,46.21
2023-03-18T20:48:59.501Z,46.09
2023-03-18T20:51:35.181Z,46.22
2023-03-18T20:54:39.370Z,46.35
2023-03-18T20:57:12.182Z,46.42
2023-03-18T20:59:40.672Z,46.08
2023-03-18T21:02:36.825Z,46.17
2023-03-18T21:05:19.289Z,46.25
2023-03-18T21:07:50.165Z,46.55
2023-03-18T21:10:26.372Z,46.23
2023-03-18T21:12:55.338Z,46.59
2023-03-18T21:15:26.899Z,46.31
2023-03-18T21:17:55.579Z,46.38
2023-03-18T21:20:40.308Z,46.75
2023-03-18T21:23:29.206Z,46.56
2023-03-18T21:25:58.184Z,46.67
2023-03-18T21:28:31.829Z,47.12
2023-03-18T21:31:03.088Z,47.23
2023-03-18T21:33:33.697Z,47.43
2023-03-18T21:36:02.585Z,47.05
2023-03-18T21:38:31.962Z,47.28
2023-03-18T21:41:02.765Z,47.14
2023-03-18T21:43:34.476Z,47.57
2023-03-18T21:46:04.393Z,47.35
2023-03-18T21:48:32.700Z,47.15
2023-03-18T21:51:00.410Z,47.10
2023-03-18T21:53:28.963Z,47.12
2023-03-18T21:55:56.614Z,47.38
2023-03-18T21:58:28.615Z,47.57
2023-03-18T22:01:01.494Z,47.83
2023-03-18T22:03:35.028Z,47.99
2023-03-18T22:06:14.055Z,48.38
2023-03-18T22:08:42.316Z,48.49
2023-03-18T22:11:18.747Z,48.26
2023-03-18T22:13:47.888Z,48.18
2023-03-18T22:16:16.856Z,48.02
2023-03-18T22:18:47.595Z,48.22
2023-03-18T22:21:23.669Z,48.45
2023-03-18T22:23:52.090Z,49.02
2023-03-18T22:26:20.386Z,49.44
2023-03-18T22:28:50.930Z,49.60
2023-03-18T22:31:26.308Z,49.52
2023-03-18T22:33:54.397Z,49.44
2023-03-18T22:36:22.212Z,49.29
2023-03-18T22:38:50.257Z,49.62
2023-03-18T22:41:24.645Z,48.97
2023-03-18T22:43:52.450Z,49.19
2023-03-18T22:46:20.214Z,49.22
2023-03-18T22:48:53.728Z,49.32
2023-03-18T22:51:27.756Z,49.51
2023-03-18T22:53:55.638Z,49.36
2023-03-18T22:56:24.218Z,49.51
2023-03-18T22:58:52.173Z,49.57
2023-03-18T23:01:23.326Z,49.37
2023-03-18T23:03:56.898Z,49.67
2023-03-18T23:06:27.499Z,49.92
2023-03-18T23:08:54.795Z,49.94
2023-03-18T23:11:22.240Z,50.11
2023-03-18T23:13:52.442Z,50.59
2023-03-18T23:16:22.405Z,50.51
2023-03-18T23:18:50.858Z,50.74
2023-03-18T23:21:22.144Z,51.16
2023-03-18T23:23:49.838Z,51.22
2023-03-18T23:26:17.621Z,51.36
2023-03-18T23:28:46.213Z,51.49
2023-03-18T23:31:16.878Z,51.52
2023-03-18T23:33:45.482Z,52.20
2023-03-18T23:36:13.285Z,52.35
2023-03-18T23:38:41.025Z,52.98
2023-03-18T23:41:08.628Z,52.83
2023-03-18T23:43:35.983Z,53.33
2023-03-18T23:46:04.107Z,53.97
2023-03-18T23:48:31.870Z,53.74
2023-03-18T23:50:59.189Z,54.51
2023-03-18T23:53:26.528Z,54.07
2023-03-18T23:55:53.771Z,54.43
2023-03-18T23:58:21.344Z,54.68
